sensor_id;sensor_type;location;lat;lon;timestamp;P1;durP1;ratioP1;P2;durP2;ratioP2
76336;SDS011;65157;50.082;18.178;2023-07-13T00:03:35;6.70;;;6.10;;
76336;SDS011;65157;50.082;18.178;2023-07-13T00:06:02;12.70;;;6.80;;
76336;SDS011;65157;50.082;18.178;2023-07-13T00:08:30;7.80;;;6.40;;
76336;SDS011;65157;50.082;18.178;2023-07-13T00:10:57;7.00;;;6.10;;
76336;SDS011;65157;50.082;18.178;2023-07-13T00:15:50;8.20;;;6.10;;
76336;SDS011;65157;50.082;18.178;2023-07-13T00:20:43;7.60;;;6.80;;
76336;SDS011;65157;50.082;18.178;2023-07-13T00:25:36;7.50;;;6.40;;
76336;SDS011;65157;50.082;18.178;2023-07-13T00:28:03;6.30;;;5.60;;
76336;SDS011;65157;50.082;18.178;2023-07-13T00:30:29;7.70;;;6.80;;
76336;SDS011;65157;50.082;18.178;2023-07-13T00:32:56;6.90;;;6.00;;
76336;SDS011;65157;50.082;18.178;2023-07-13T00:35:23;9.20;;;5.90;;
76336;SDS011;65157;50.082;18.178;2023-07-13T00:40:15;4.90;;;4.00;;
76336;SDS011;65157;50.082;18.178;2023-07-13T00:42:42;7.40;;;6.70;;
76336;SDS011;65157;50.082;18.178;2023-07-13T00:47:38;5.70;;;5.10;;
76336;SDS011;65157;50.082;18.178;2023-07-13T00:50:07;5.30;;;4.20;;
76336;SDS011;65157;50.082;18.178;2023-07-13T00:52:39;5.50;;;4.70;;
76336;SDS011;65157;50.082;18.178;2023-07-13T00:55:08;4.80;;;4.40;;
76336;SDS011;65157;50.082;18.178;2023-07-13T00:57:36;5.90;;;4.40;;
76336;SDS011;65157;50.082;18.178;2023-07-13T01:00:03;4.90;;;4.20;;
76336;SDS011;65157;50.082;18.178;2023-07-13T01:02:32;5.40;;;4.80;;
76336;SDS011;65157;50.082;18.178;2023-07-13T01:05:01;5.30;;;3.70;;
76336;SDS011;65157;50.082;18.178;2023-07-13T01:07:29;7.00;;;5.30;;
76336;SDS011;65157;50.082;18.178;2023-07-13T01:09:55;4.90;;;4.20;;
76336;SDS011;65157;50.082;18.178;2023-07-13T01:14:48;6.60;;;5.90;;
76336;SDS011;65157;50.082;18.178;2023-07-13T01:17:22;4.90;;;4.30;;
76336;SDS011;65157;50.082;18.178;2023-07-13T01:22:16;5.40;;;4.90;;
76336;SDS011;65157;50.082;18.178;2023-07-13T01:24:46;7.80;;;6.10;;
76336;SDS011;65157;50.082;18.178;2023-07-13T01:27:14;8.30;;;6.60;;
76336;SDS011;65157;50.082;18.178;2023-07-13T01:29:44;7.10;;;6.40;;
76336;SDS011;65157;50.082;18.178;2023-07-13T01:32:13;5.80;;;5.20;;
76336;SDS011;65157;50.082;18.178;2023-07-13T01:34:42;4.80;;;4.40;;
76336;SDS011;65157;50.082;18.178;2023-07-13T01:37:09;5.40;;;4.80;;
76336;SDS011;65157;50.082;18.178;2023-07-13T01:39:37;5.00;;;4.40;;
76336;SDS011;65157;50.082;18.178;2023-07-13T01:42:04;7.70;;;6.50;;
76336;SDS011;65157;50.082;18.178;2023-07-13T01:44:48;10.40;;;5.70;;
76336;SDS011;65157;50.082;18.178;2023-07-13T01:47:15;8.20;;;7.50;;
76336;SDS011;65157;50.082;18.178;2023-07-13T01:49:42;6.50;;;4.60;;
76336;SDS011;65157;50.082;18.178;2023-07-13T01:52:08;9.80;;;5.80;;
76336;SDS011;65157;50.082;18.178;2023-07-13T01:54:35;5.90;;;4.70;;
76336;SDS011;65157;50.082;18.178;2023-07-13T01:57:01;7.70;;;6.90;;
76336;SDS011;65157;50.082;18.178;2023-07-13T02:01:54;7.40;;;4.00;;
76336;SDS011;65157;50.082;18.178;2023-07-13T02:04:20;6.00;;;4.40;;
76336;SDS011;65157;50.082;18.178;2023-07-13T02:06:47;5.80;;;5.20;;
76336;SDS011;65157;50.082;18.178;2023-07-13T02:09:13;9.10;;;6.20;;
76336;SDS011;65157;50.082;18.178;2023-07-13T02:14:06;9.20;;;6.70;;
76336;SDS011;65157;50.082;18.178;2023-07-13T02:16:34;8.30;;;6.30;;
76336;SDS011;65157;50.082;18.178;2023-07-13T02:19:02;8.60;;;5.20;;
76336;SDS011;65157;50.082;18.178;2023-07-13T02:21:29;7.90;;;5.30;;
76336;SDS011;65157;50.082;18.178;2023-07-13T02:23:55;8.20;;;6.70;;
76336;SDS011;65157;50.082;18.178;2023-07-13T02:26:22;9.00;;;5.30;;
76336;SDS011;65157;50.082;18.178;2023-07-13T02:28:48;13.50;;;5.20;;
76336;SDS011;65157;50.082;18.178;2023-07-13T02:31:15;6.80;;;5.00;;
76336;SDS011;65157;50.082;18.178;2023-07-13T02:33:42;7.90;;;4.80;;
76336;SDS011;65157;50.082;18.178;2023-07-13T02:36:12;7.90;;;6.80;;
76336;SDS011;65157;50.082;18.178;2023-07-13T02:38:39;8.50;;;5.20;;
76336;SDS011;65157;50.082;18.178;2023-07-13T02:43:33;7.50;;;4.30;;
76336;SDS011;65157;50.082;18.178;2023-07-13T02:48:26;7.50;;;5.00;;
76336;SDS011;65157;50.082;18.178;2023-07-13T02:50:52;5.30;;;4.80;;
76336;SDS011;65157;50.082;18.178;2023-07-13T02:53:19;5.70;;;5.20;;
76336;SDS011;65157;50.082;18.178;2023-07-13T02:55:46;5.50;;;4.80;;
76336;SDS011;65157;50.082;18.178;2023-07-13T02:58:12;6.00;;;5.20;;
76336;SDS011;65157;50.082;18.178;2023-07-13T03:00:39;6.10;;;4.80;;
76336;SDS011;65157;50.082;18.178;2023-07-13T03:03:06;7.40;;;6.70;;
76336;SDS011;65157;50.082;18.178;2023-07-13T03:05:33;6.10;;;5.50;;
76336;SDS011;65157;50.082;18.178;2023-07-13T03:10:26;6.90;;;5.90;;
76336;SDS011;65157;50.082;18.178;2023-07-13T03:12:52;5.50;;;4.50;;
76336;SDS011;65157;50.082;18.178;2023-07-13T03:15:19;12.70;;;6.90;;
76336;SDS011;65157;50.082;18.178;2023-07-13T03:17:45;6.60;;;5.10;;
76336;SDS011;65157;50.082;18.178;2023-07-13T03:22:38;11.40;;;4.80;;
76336;SDS011;65157;50.082;18.178;2023-07-13T03:27:31;11.90;;;5.80;;
76336;SDS011;65157;50.082;18.178;2023-07-13T03:29:58;10.00;;;7.70;;
76336;SDS011;65157;50.082;18.178;2023-07-13T03:32:26;10.30;;;7.10;;
76336;SDS011;65157;50.082;18.178;2023-07-13T03:34:52;7.30;;;4.80;;
76336;SDS011;65157;50.082;18.178;2023-07-13T03:37:19;6.80;;;5.80;;
76336;SDS011;65157;50.082;18.178;2023-07-13T03:39:46;11.00;;;6.30;;
76336;SDS011;65157;50.082;18.178;2023-07-13T03:42:12;10.10;;;6.40;;
76336;SDS011;65157;50.082;18.178;2023-07-13T03:47:06;12.90;;;5.60;;
76336;SDS011;65157;50.082;18.178;2023-07-13T03:51:59;12.60;;;5.10;;
76336;SDS011;65157;50.082;18.178;2023-07-13T03:54:26;11.50;;;6.10;;
76336;SDS011;65157;50.082;18.178;2023-07-13T03:56:53;14.20;;;5.10;;
76336;SDS011;65157;50.082;18.178;2023-07-13T03:59:19;11.70;;;6.00;;
76336;SDS011;65157;50.082;18.178;2023-07-13T04:04:12;9.90;;;7.10;;
76336;SDS011;65157;50.082;18.178;2023-07-13T04:09:05;14.90;;;6.20;;
76336;SDS011;65157;50.082;18.178;2023-07-13T04:13:59;14.70;;;6.90;;
76336;SDS011;65157;50.082;18.178;2023-07-13T04:16:26;17.40;;;7.80;;
76336;SDS011;65157;50.082;18.178;2023-07-13T04:18:54;14.50;;;7.40;;
76336;SDS011;65157;50.082;18.178;2023-07-13T04:21:21;12.30;;;5.30;;
76336;SDS011;65157;50.082;18.178;2023-07-13T04:23:48;11.30;;;4.90;;
76336;SDS011;65157;50.082;18.178;2023-07-13T04:28:41;12.10;;;5.10;;
76336;SDS011;65157;50.082;18.178;2023-07-13T04:31:08;10.70;;;4.80;;
76336;SDS011;65157;50.082;18.178;2023-07-13T04:33:34;11.00;;;6.90;;
76336;SDS011;65157;50.082;18.178;2023-07-13T04:36:01;8.50;;;5.80;;
76336;SDS011;65157;50.082;18.178;2023-07-13T04:40:58;9.30;;;6.20;;
76336;SDS011;65157;50.082;18.178;2023-07-13T04:43:26;18.10;;;6.10;;
76336;SDS011;65157;50.082;18.178;2023-07-13T04:45:54;12.20;;;7.30;;
76336;SDS011;65157;50.082;18.178;2023-07-13T04:48:21;14.20;;;8.70;;
76336;SDS011;65157;50.082;18.178;2023-07-13T04:50:54;11.50;;;6.90;;
76336;SDS011;65157;50.082;18.178;2023-07-13T04:53:22;12.50;;;8.60;;
76336;SDS011;65157;50.082;18.178;2023-07-13T04:55:49;10.70;;;7.10;;
76336;SDS011;65157;50.082;18.178;2023-07-13T04:58:16;10.70;;;5.30;;
76336;SDS011;65157;50.082;18.178;2023-07-13T05:00:42;13.30;;;8.30;;
76336;SDS011;65157;50.082;18.178;2023-07-13T05:03:09;10.10;;;6.20;;
76336;SDS011;65157;50.082;18.178;2023-07-13T05:05:36;8.60;;;6.60;;
76336;SDS011;65157;50.082;18.178;2023-07-13T05:08:02;8.40;;;6.00;;
76336;SDS011;65157;50.082;18.178;2023-07-13T05:10:29;8.60;;;6.10;;
76336;SDS011;65157;50.082;18.178;2023-07-13T05:15:22;8.10;;;5.80;;
76336;SDS011;65157;50.082;18.178;2023-07-13T05:20:16;7.40;;;5.40;;
76336;SDS011;65157;50.082;18.178;2023-07-13T05:22:44;7.80;;;5.20;;
76336;SDS011;65157;50.082;18.178;2023-07-13T05:25:11;7.90;;;7.10;;
76336;SDS011;65157;50.082;18.178;2023-07-13T05:27:39;6.00;;;5.20;;
76336;SDS011;65157;50.082;18.178;2023-07-13T05:30:06;10.10;;;5.90;;
76336;SDS011;65157;50.082;18.178;2023-07-13T05:32:33;6.90;;;5.30;;
76336;SDS011;65157;50.082;18.178;2023-07-13T05:37:26;10.60;;;5.20;;
76336;SDS011;65157;50.082;18.178;2023-07-13T05:39:52;10.50;;;5.60;;
76336;SDS011;65157;50.082;18.178;2023-07-13T05:44:45;12.20;;;6.20;;
76336;SDS011;65157;50.082;18.178;2023-07-13T05:47:11;11.70;;;6.10;;
76336;SDS011;65157;50.082;18.178;2023-07-13T05:52:04;8.90;;;6.00;;
76336;SDS011;65157;50.082;18.178;2023-07-13T05:54:31;8.20;;;6.50;;
76336;SDS011;65157;50.082;18.178;2023-07-13T05:56:58;10.70;;;7.20;;
76336;SDS011;65157;50.082;18.178;2023-07-13T06:01:51;11.60;;;7.80;;
76336;SDS011;65157;50.082;18.178;2023-07-13T06:06:45;12.00;;;7.30;;
76336;SDS011;65157;50.082;18.178;2023-07-13T06:09:11;9.00;;;7.70;;
76336;SDS011;65157;50.082;18.178;2023-07-13T06:14:04;9.10;;;5.30;;
76336;SDS011;65157;50.082;18.178;2023-07-13T06:18:57;9.00;;;8.10;;
76336;SDS011;65157;50.082;18.178;2023-07-13T06:21:24;13.50;;;8.80;;
76336;SDS011;65157;50.082;18.178;2023-07-13T06:26:19;8.30;;;7.30;;
76336;SDS011;65157;50.082;18.178;2023-07-13T06:28:46;8.20;;;7.20;;
76336;SDS011;65157;50.082;18.178;2023-07-13T06:31:14;11.20;;;7.00;;
76336;SDS011;65157;50.082;18.178;2023-07-13T06:33:41;10.40;;;5.80;;
76336;SDS011;65157;50.082;18.178;2023-07-13T06:36:08;10.10;;;5.90;;
76336;SDS011;65157;50.082;18.178;2023-07-13T06:38:35;10.20;;;7.60;;
76336;SDS011;65157;50.082;18.178;2023-07-13T06:41:02;12.10;;;6.00;;
76336;SDS011;65157;50.082;18.178;2023-07-13T06:43:30;9.10;;;8.00;;
76336;SDS011;65157;50.082;18.178;2023-07-13T06:45:57;9.50;;;8.40;;
76336;SDS011;65157;50.082;18.178;2023-07-13T06:50:50;8.60;;;6.70;;
76336;SDS011;65157;50.082;18.178;2023-07-13T06:53:17;7.60;;;6.40;;
76336;SDS011;65157;50.082;18.178;2023-07-13T06:55:45;10.00;;;9.00;;
76336;SDS011;65157;50.082;18.178;2023-07-13T06:58:12;16.00;;;6.10;;
76336;SDS011;65157;50.082;18.178;2023-07-13T07:00:39;9.70;;;7.30;;
76336;SDS011;65157;50.082;18.178;2023-07-13T07:03:05;10.90;;;8.60;;
76336;SDS011;65157;50.082;18.178;2023-07-13T07:05:33;11.00;;;6.70;;
76336;SDS011;65157;50.082;18.178;2023-07-13T07:08:00;7.80;;;6.50;;
76336;SDS011;65157;50.082;18.178;2023-07-13T07:10:28;8.30;;;5.30;;
76336;SDS011;65157;50.082;18.178;2023-07-13T07:12:56;8.70;;;6.00;;
76336;SDS011;65157;50.082;18.178;2023-07-13T07:15:23;9.10;;;7.10;;
76336;SDS011;65157;50.082;18.178;2023-07-13T07:20:15;13.10;;;7.60;;
76336;SDS011;65157;50.082;18.178;2023-07-13T07:22:42;9.00;;;5.80;;
76336;SDS011;65157;50.082;18.178;2023-07-13T07:25:09;10.80;;;7.00;;
76336;SDS011;65157;50.082;18.178;2023-07-13T07:27:38;9.70;;;7.10;;
76336;SDS011;65157;50.082;18.178;2023-07-13T07:30:06;6.40;;;5.10;;
76336;SDS011;65157;50.082;18.178;2023-07-13T07:32:33;7.60;;;6.00;;
76336;SDS011;65157;50.082;18.178;2023-07-13T07:35:00;9.20;;;7.20;;
76336;SDS011;65157;50.082;18.178;2023-07-13T07:39:53;8.70;;;6.20;;
76336;SDS011;65157;50.082;18.178;2023-07-13T07:44:46;6.50;;;5.40;;
76336;SDS011;65157;50.082;18.178;2023-07-13T07:47:13;7.30;;;5.70;;
76336;SDS011;65157;50.082;18.178;2023-07-13T07:52:06;10.10;;;8.50;;
76336;SDS011;65157;50.082;18.178;2023-07-13T07:54:33;10.90;;;9.10;;
76336;SDS011;65157;50.082;18.178;2023-07-13T07:59:26;8.70;;;7.80;;
76336;SDS011;65157;50.082;18.178;2023-07-13T08:01:53;15.30;;;8.30;;
76336;SDS011;65157;50.082;18.178;2023-07-13T08:04:19;8.40;;;7.10;;
76336;SDS011;65157;50.082;18.178;2023-07-13T08:09:14;10.40;;;7.10;;
76336;SDS011;65157;50.082;18.178;2023-07-13T08:11:41;10.40;;;8.00;;
76336;SDS011;65157;50.082;18.178;2023-07-13T08:14:07;8.60;;;7.20;;
76336;SDS011;65157;50.082;18.178;2023-07-13T08:19:01;9.30;;;7.90;;
76336;SDS011;65157;50.082;18.178;2023-07-13T08:21:27;11.20;;;7.60;;
76336;SDS011;65157;50.082;18.178;2023-07-13T08:26:21;9.00;;;8.10;;
76336;SDS011;65157;50.082;18.178;2023-07-13T08:28:48;7.60;;;5.80;;
76336;SDS011;65157;50.082;18.178;2023-07-13T08:33:41;11.50;;;6.80;;
76336;SDS011;65157;50.082;18.178;2023-07-13T08:38:35;7.80;;;6.70;;
76336;SDS011;65157;50.082;18.178;2023-07-13T08:41:09;10.00;;;6.50;;
76336;SDS011;65157;50.082;18.178;2023-07-13T08:43:51;5.00;;;4.20;;
76336;SDS011;65157;50.082;18.178;2023-07-13T08:46:26;7.80;;;5.50;;
76336;SDS011;65157;50.082;18.178;2023-07-13T08:48:59;7.90;;;7.00;;
76336;SDS011;65157;50.082;18.178;2023-07-13T08:56:58;7.50;;;6.30;;
76336;SDS011;65157;50.082;18.178;2023-07-13T08:59:28;4.60;;;4.10;;
76336;SDS011;65157;50.082;18.178;2023-07-13T09:10:13;5.90;;;5.10;;
76336;SDS011;65157;50.082;18.178;2023-07-13T09:12:57;3.40;;;3.10;;
76336;SDS011;65157;50.082;18.178;2023-07-13T09:15:47;4.80;;;4.40;;
76336;SDS011;65157;50.082;18.178;2023-07-13T09:20:56;4.20;;;3.70;;
76336;SDS011;65157;50.082;18.178;2023-07-13T09:23:27;5.90;;;5.30;;
76336;SDS011;65157;50.082;18.178;2023-07-13T09:26:00;4.30;;;3.90;;
76336;SDS011;65157;50.082;18.178;2023-07-13T09:28:37;4.10;;;3.80;;
76336;SDS011;65157;50.082;18.178;2023-07-13T09:31:12;3.60;;;3.30;;
76336;SDS011;65157;50.082;18.178;2023-07-13T09:33:41;4.80;;;4.40;;
76336;SDS011;65157;50.082;18.178;2023-07-13T09:36:22;3.20;;;3.00;;
76336;SDS011;65157;50.082;18.178;2023-07-13T09:41:47;2.60;;;2.40;;
76336;SDS011;65157;50.082;18.178;2023-07-13T09:44:42;4.90;;;4.50;;
76336;SDS011;65157;50.082;18.178;2023-07-13T09:47:18;4.30;;;4.00;;
76336;SDS011;65157;50.082;18.178;2023-07-13T09:49:54;5.40;;;5.00;;
76336;SDS011;65157;50.082;18.178;2023-07-13T09:52:43;4.70;;;4.30;;
76336;SDS011;65157;50.082;18.178;2023-07-13T09:55:24;3.90;;;3.60;;
76336;SDS011;65157;50.082;18.178;2023-07-13T09:57:54;4.00;;;3.70;;
76336;SDS011;65157;50.082;18.178;2023-07-13T10:00:28;5.60;;;5.10;;
76336;SDS011;65157;50.082;18.178;2023-07-13T10:03:00;6.00;;;5.60;;
76336;SDS011;65157;50.082;18.178;2023-07-13T10:05:43;4.50;;;4.20;;
76336;SDS011;65157;50.082;18.178;2023-07-13T10:10:51;5.50;;;5.00;;
76336;SDS011;65157;50.082;18.178;2023-07-13T10:13:27;4.00;;;3.70;;
76336;SDS011;65157;50.082;18.178;2023-07-13T10:15:57;4.40;;;4.10;;
76336;SDS011;65157;50.082;18.178;2023-07-13T10:18:26;4.80;;;4.50;;
76336;SDS011;65157;50.082;18.178;2023-07-13T10:20:54;3.20;;;3.00;;
76336;SDS011;65157;50.082;18.178;2023-07-13T10:23:35;4.60;;;4.30;;
76336;SDS011;65157;50.082;18.178;2023-07-13T10:26:03;5.10;;;4.70;;
76336;SDS011;65157;50.082;18.178;2023-07-13T10:28:36;5.60;;;5.20;;
76336;SDS011;65157;50.082;18.178;2023-07-13T10:31:06;6.70;;;4.90;;
76336;SDS011;65157;50.082;18.178;2023-07-13T10:33:38;3.50;;;3.30;;
76336;SDS011;65157;50.082;18.178;2023-07-13T10:36:49;5.80;;;5.30;;
76336;SDS011;65157;50.082;18.178;2023-07-13T10:39:04;4.20;;;3.80;;
76336;SDS011;65157;50.082;18.178;2023-07-13T10:41:33;3.50;;;3.20;;
76336;SDS011;65157;50.082;18.178;2023-07-13T10:44:05;3.30;;;3.00;;
76336;SDS011;65157;50.082;18.178;2023-07-13T10:46:41;4.20;;;3.90;;
76336;SDS011;65157;50.082;18.178;2023-07-13T10:49:10;4.10;;;3.70;;
76336;SDS011;65157;50.082;18.178;2023-07-13T10:51:38;3.30;;;3.00;;
76336;SDS011;65157;50.082;18.178;2023-07-13T10:54:16;3.80;;;3.50;;
76336;SDS011;65157;50.082;18.178;2023-07-13T10:56:43;3.90;;;3.50;;
76336;SDS011;65157;50.082;18.178;2023-07-13T10:59:26;3.10;;;2.90;;
76336;SDS011;65157;50.082;18.178;2023-07-13T11:04:29;4.40;;;4.00;;
76336;SDS011;65157;50.082;18.178;2023-07-13T11:07:11;4.30;;;4.00;;
76336;SDS011;65157;50.082;18.178;2023-07-13T11:09:49;3.90;;;3.60;;
76336;SDS011;65157;50.082;18.178;2023-07-13T11:12:52;4.30;;;3.20;;
76336;SDS011;65157;50.082;18.178;2023-07-13T11:18:20;4.90;;;4.60;;
76336;SDS011;65157;50.082;18.178;2023-07-13T11:20:49;2.60;;;2.40;;
76336;SDS011;65157;50.082;18.178;2023-07-13T11:25:44;4.60;;;4.30;;
76336;SDS011;65157;50.082;18.178;2023-07-13T11:28:16;3.30;;;2.80;;
76336;SDS011;65157;50.082;18.178;2023-07-13T11:33:21;2.90;;;2.60;;
76336;SDS011;65157;50.082;18.178;2023-07-13T11:35:52;4.30;;;3.90;;
76336;SDS011;65157;50.082;18.178;2023-07-13T11:38:41;5.90;;;5.50;;
76336;SDS011;65157;50.082;18.178;2023-07-13T11:41:14;4.10;;;3.70;;
76336;SDS011;65157;50.082;18.178;2023-07-13T11:43:45;6.30;;;5.70;;
76336;SDS011;65157;50.082;18.178;2023-07-13T11:46:16;5.10;;;4.60;;
76336;SDS011;65157;50.082;18.178;2023-07-13T11:48:54;3.80;;;3.50;;
76336;SDS011;65157;50.082;18.178;2023-07-13T11:51:28;5.80;;;5.40;;
76336;SDS011;65157;50.082;18.178;2023-07-13T11:53:58;5.40;;;5.00;;
76336;SDS011;65157;50.082;18.178;2023-07-13T11:56:30;4.50;;;4.10;;
76336;SDS011;65157;50.082;18.178;2023-07-13T12:01:24;3.70;;;3.40;;
76336;SDS011;65157;50.082;18.178;2023-07-13T12:03:53;4.90;;;4.50;;
76336;SDS011;65157;50.082;18.178;2023-07-13T12:06:33;4.80;;;4.40;;
76336;SDS011;65157;50.082;18.178;2023-07-13T12:09:08;4.50;;;4.20;;
76336;SDS011;65157;50.082;18.178;2023-07-13T12:11:39;5.70;;;5.20;;
76336;SDS011;65157;50.082;18.178;2023-07-13T12:14:13;5.20;;;4.70;;
76336;SDS011;65157;50.082;18.178;2023-07-13T12:16:45;6.40;;;5.80;;
76336;SDS011;65157;50.082;18.178;2023-07-13T12:19:23;6.70;;;6.20;;
76336;SDS011;65157;50.082;18.178;2023-07-13T12:21:56;4.50;;;4.20;;
76336;SDS011;65157;50.082;18.178;2023-07-13T12:24:24;5.00;;;3.90;;
76336;SDS011;65157;50.082;18.178;2023-07-13T12:26:54;4.90;;;4.50;;
76336;SDS011;65157;50.082;18.178;2023-07-13T12:29:29;5.00;;;4.50;;
76336;SDS011;65157;50.082;18.178;2023-07-13T12:32:08;4.40;;;4.10;;
76336;SDS011;65157;50.082;18.178;2023-07-13T12:34:49;6.80;;;5.50;;
76336;SDS011;65157;50.082;18.178;2023-07-13T12:37:18;5.40;;;4.90;;
76336;SDS011;65157;50.082;18.178;2023-07-13T12:39:46;7.30;;;6.60;;
76336;SDS011;65157;50.082;18.178;2023-07-13T12:47:41;4.80;;;4.40;;
76336;SDS011;65157;50.082;18.178;2023-07-13T12:50:14;3.60;;;3.00;;
76336;SDS011;65157;50.082;18.178;2023-07-13T12:52:51;4.00;;;3.80;;
76336;SDS011;65157;50.082;18.178;2023-07-13T12:55:20;4.40;;;4.10;;
76336;SDS011;65157;50.082;18.178;2023-07-13T12:57:51;4.80;;;4.40;;
76336;SDS011;65157;50.082;18.178;2023-07-13T13:00:23;8.40;;;3.80;;
76336;SDS011;65157;50.082;18.178;2023-07-13T13:03:01;4.40;;;4.00;;
76336;SDS011;65157;50.082;18.178;2023-07-13T13:05:32;4.10;;;3.80;;
76336;SDS011;65157;50.082;18.178;2023-07-13T13:08:01;4.90;;;4.60;;
76336;SDS011;65157;50.082;18.178;2023-07-13T13:12:54;3.40;;;3.20;;
76336;SDS011;65157;50.082;18.178;2023-07-13T13:17:47;4.00;;;3.60;;
76336;SDS011;65157;50.082;18.178;2023-07-13T13:22:42;3.90;;;3.60;;
76336;SDS011;65157;50.082;18.178;2023-07-13T13:25:12;4.30;;;4.00;;
76336;SDS011;65157;50.082;18.178;2023-07-13T13:27:43;3.70;;;3.40;;
76336;SDS011;65157;50.082;18.178;2023-07-13T13:30:12;4.60;;;4.20;;
76336;SDS011;65157;50.082;18.178;2023-07-13T13:32:45;4.50;;;4.20;;
76336;SDS011;65157;50.082;18.178;2023-07-13T13:35:15;4.70;;;3.70;;
76336;SDS011;65157;50.082;18.178;2023-07-13T13:37:44;3.90;;;3.70;;
76336;SDS011;65157;50.082;18.178;2023-07-13T13:40:15;3.50;;;3.30;;
76336;SDS011;65157;50.082;18.178;2023-07-13T13:42:44;4.30;;;4.00;;
76336;SDS011;65157;50.082;18.178;2023-07-13T13:45:10;3.30;;;3.10;;
76336;SDS011;65157;50.082;18.178;2023-07-13T13:47:37;4.30;;;4.00;;
76336;SDS011;65157;50.082;18.178;2023-07-13T13:50:15;6.50;;;6.10;;
76336;SDS011;65157;50.082;18.178;2023-07-13T13:52:45;5.20;;;4.80;;
76336;SDS011;65157;50.082;18.178;2023-07-13T13:55:12;4.10;;;3.20;;
76336;SDS011;65157;50.082;18.178;2023-07-13T13:57:40;2.80;;;2.60;;
76336;SDS011;65157;50.082;18.178;2023-07-13T14:00:10;4.20;;;2.80;;
76336;SDS011;65157;50.082;18.178;2023-07-13T14:02:39;3.30;;;3.00;;
76336;SDS011;65157;50.082;18.178;2023-07-13T14:05:10;4.20;;;3.80;;
76336;SDS011;65157;50.082;18.178;2023-07-13T14:07:39;4.50;;;4.20;;
76336;SDS011;65157;50.082;18.178;2023-07-13T14:10:10;4.20;;;3.90;;
76336;SDS011;65157;50.082;18.178;2023-07-13T14:12:39;4.00;;;3.80;;
76336;SDS011;65157;50.082;18.178;2023-07-13T14:15:05;4.60;;;4.10;;
76336;SDS011;65157;50.082;18.178;2023-07-13T14:17:38;4.40;;;2.60;;
76336;SDS011;65157;50.082;18.178;2023-07-13T14:20:09;6.00;;;3.70;;
76336;SDS011;65157;50.082;18.178;2023-07-13T14:22:38;4.60;;;4.20;;
76336;SDS011;65157;50.082;18.178;2023-07-13T14:25:04;4.50;;;4.10;;
76336;SDS011;65157;50.082;18.178;2023-07-13T14:27:31;3.60;;;3.00;;
76336;SDS011;65157;50.082;18.178;2023-07-13T14:29:58;3.00;;;2.80;;
76336;SDS011;65157;50.082;18.178;2023-07-13T14:32:24;5.50;;;5.00;;
76336;SDS011;65157;50.082;18.178;2023-07-13T14:34:51;4.10;;;3.50;;
76336;SDS011;65157;50.082;18.178;2023-07-13T14:37:17;4.00;;;3.70;;
76336;SDS011;65157;50.082;18.178;2023-07-13T14:39:44;3.20;;;3.00;;
76336;SDS011;65157;50.082;18.178;2023-07-13T14:42:17;5.20;;;3.80;;
76336;SDS011;65157;50.082;18.178;2023-07-13T14:44:43;3.20;;;2.90;;
76336;SDS011;65157;50.082;18.178;2023-07-13T14:47:10;4.20;;;3.80;;
76336;SDS011;65157;50.082;18.178;2023-07-13T14:49:40;5.10;;;4.70;;
76336;SDS011;65157;50.082;18.178;2023-07-13T14:52:16;6.40;;;3.90;;
76336;SDS011;65157;50.082;18.178;2023-07-13T14:54:45;4.10;;;3.70;;
76336;SDS011;65157;50.082;18.178;2023-07-13T14:57:15;3.40;;;3.00;;
76336;SDS011;65157;50.082;18.178;2023-07-13T14:59:43;3.30;;;3.10;;
76336;SDS011;65157;50.082;18.178;2023-07-13T15:02:34;4.00;;;3.80;;
76336;SDS011;65157;50.082;18.178;2023-07-13T15:05:01;4.20;;;3.60;;
76336;SDS011;65157;50.082;18.178;2023-07-13T15:07:31;4.80;;;3.90;;
76336;SDS011;65157;50.082;18.178;2023-07-13T15:09:58;4.30;;;4.00;;
76336;SDS011;65157;50.082;18.178;2023-07-13T15:12:25;4.20;;;3.90;;
76336;SDS011;65157;50.082;18.178;2023-07-13T15:14:52;3.70;;;3.40;;
76336;SDS011;65157;50.082;18.178;2023-07-13T15:17:31;5.30;;;4.90;;
76336;SDS011;65157;50.082;18.178;2023-07-13T15:20:15;5.50;;;3.80;;
76336;SDS011;65157;50.082;18.178;2023-07-13T15:22:43;3.90;;;3.70;;
76336;SDS011;65157;50.082;18.178;2023-07-13T15:25:17;4.40;;;4.10;;
76336;SDS011;65157;50.082;18.178;2023-07-13T15:27:54;4.60;;;4.20;;
76336;SDS011;65157;50.082;18.178;2023-07-13T15:30:25;3.20;;;2.90;;
76336;SDS011;65157;50.082;18.178;2023-07-13T15:32:54;4.40;;;4.10;;
76336;SDS011;65157;50.082;18.178;2023-07-13T15:35:25;4.50;;;4.20;;
76336;SDS011;65157;50.082;18.178;2023-07-13T15:37:55;6.30;;;5.90;;
76336;SDS011;65157;50.082;18.178;2023-07-13T15:40:23;4.60;;;4.30;;
76336;SDS011;65157;50.082;18.178;2023-07-13T15:42:50;4.70;;;4.40;;
76336;SDS011;65157;50.082;18.178;2023-07-13T15:45:21;4.90;;;4.60;;
76336;SDS011;65157;50.082;18.178;2023-07-13T15:47:49;6.30;;;5.60;;
76336;SDS011;65157;50.082;18.178;2023-07-13T15:50:19;6.90;;;6.40;;
76336;SDS011;65157;50.082;18.178;2023-07-13T15:52:54;3.40;;;3.20;;
76336;SDS011;65157;50.082;18.178;2023-07-13T15:55:24;5.10;;;4.50;;
76336;SDS011;65157;50.082;18.178;2023-07-13T15:57:51;3.30;;;3.10;;
76336;SDS011;65157;50.082;18.178;2023-07-13T16:00:20;6.10;;;5.70;;
76336;SDS011;65157;50.082;18.178;2023-07-13T16:02:49;6.10;;;5.70;;
76336;SDS011;65157;50.082;18.178;2023-07-13T16:05:18;6.60;;;6.10;;
76336;SDS011;65157;50.082;18.178;2023-07-13T16:07:49;5.00;;;4.70;;
76336;SDS011;65157;50.082;18.178;2023-07-13T16:10:20;4.50;;;3.70;;
76336;SDS011;65157;50.082;18.178;2023-07-13T16:12:50;5.30;;;4.50;;
76336;SDS011;65157;50.082;18.178;2023-07-13T16:15:18;5.30;;;4.90;;
76336;SDS011;65157;50.082;18.178;2023-07-13T16:17:47;4.70;;;4.40;;
76336;SDS011;65157;50.082;18.178;2023-07-13T16:20:16;4.90;;;4.10;;
76336;SDS011;65157;50.082;18.178;2023-07-13T16:22:46;5.30;;;4.90;;
76336;SDS011;65157;50.082;18.178;2023-07-13T16:27:44;5.10;;;4.70;;
76336;SDS011;65157;50.082;18.178;2023-07-13T16:30:12;4.80;;;4.50;;
76336;SDS011;65157;50.082;18.178;2023-07-13T16:32:41;5.60;;;5.20;;
76336;SDS011;65157;50.082;18.178;2023-07-13T16:35:09;6.00;;;5.60;;
76336;SDS011;65157;50.082;18.178;2023-07-13T16:37:36;4.80;;;4.40;;
76336;SDS011;65157;50.082;18.178;2023-07-13T16:43:00;5.90;;;5.60;;
76336;SDS011;65157;50.082;18.178;2023-07-13T16:45:28;5.00;;;4.70;;
76336;SDS011;65157;50.082;18.178;2023-07-13T16:47:57;4.70;;;4.30;;
76336;SDS011;65157;50.082;18.178;2023-07-13T16:50:30;3.80;;;3.50;;
76336;SDS011;65157;50.082;18.178;2023-07-13T16:52:58;5.40;;;5.10;;
76336;SDS011;65157;50.082;18.178;2023-07-13T16:55:26;4.60;;;4.20;;
76336;SDS011;65157;50.082;18.178;2023-07-13T16:58:00;4.90;;;4.40;;
76336;SDS011;65157;50.082;18.178;2023-07-13T17:00:28;6.20;;;5.80;;
76336;SDS011;65157;50.082;18.178;2023-07-13T17:03:00;4.60;;;4.10;;
76336;SDS011;65157;50.082;18.178;2023-07-13T17:05:40;7.80;;;7.30;;
76336;SDS011;65157;50.082;18.178;2023-07-13T17:08:15;4.00;;;3.80;;
76336;SDS011;65157;50.082;18.178;2023-07-13T17:10:48;3.80;;;3.50;;
76336;SDS011;65157;50.082;18.178;2023-07-13T17:13:16;4.50;;;4.30;;
76336;SDS011;65157;50.082;18.178;2023-07-13T17:15:46;3.10;;;2.90;;
76336;SDS011;65157;50.082;18.178;2023-07-13T17:18:14;5.00;;;4.60;;
76336;SDS011;65157;50.082;18.178;2023-07-13T17:20:41;7.20;;;6.70;;
76336;SDS011;65157;50.082;18.178;2023-07-13T17:23:15;4.30;;;4.00;;
76336;SDS011;65157;50.082;18.178;2023-07-13T17:25:44;3.30;;;3.10;;